createdAt,value
2023-10-24T00:00:59.196Z,540.00
2023-10-24T00:03:25.737Z,534.55
2023-10-24T00:05:53.229Z,509.75
2023-10-24T00:08:19.644Z,519.30
2023-10-24T00:10:46.661Z,494.98
2023-10-24T00:13:13.587Z,512.67
2023-10-24T00:15:40.041Z,503.45
2023-10-24T00:18:06.674Z,520.03
2023-10-24T00:20:33.115Z,522.45
2023-10-24T00:22:59.659Z,507.60
2023-10-24T00:25:26.117Z,539.88
2023-10-24T00:27:52.607Z,530.28
2023-10-24T00:30:19.004Z,515.97
2023-10-24T00:32:50.808Z,511.23
2023-10-24T00:35:18.379Z,526.60
2023-10-24T00:37:45.103Z,537.35
2023-10-24T00:40:12.362Z,526.65
2023-10-24T00:42:38.862Z,530.75
2023-10-24T00:45:06.722Z,546.78
2023-10-24T00:47:33.800Z,532.15
2023-10-24T00:50:00.544Z,547.95
2023-10-24T00:52:27.672Z,513.22
2023-10-24T00:54:54.510Z,522.83
2023-10-24T00:57:21.038Z,541.47
2023-10-24T00:59:47.870Z,543.75
2023-10-24T01:02:15.211Z,538.67
2023-10-24T01:04:41.820Z,505.27
2023-10-24T01:07:08.463Z,505.35
2023-10-24T01:09:35.080Z,490.52
2023-10-24T01:12:01.719Z,477.45
2023-10-24T01:14:28.442Z,502.92
2023-10-24T01:16:55.060Z,516.53
2023-10-24T01:19:24.076Z,522.72
2023-10-24T01:21:50.562Z,501.35
2023-10-24T01:24:18.362Z,511.48
2023-10-24T01:26:45.731Z,540.88
2023-10-24T01:29:12.388Z,540.50
2023-10-24T01:31:39.147Z,514.28
2023-10-24T01:34:05.755Z,493.23
2023-10-24T01:36:32.425Z,512.75
2023-10-24T01:38:58.806Z,486.65
2023-10-24T01:41:25.194Z,482.20
2023-10-24T01:43:53.036Z,472.30
2023-10-24T01:46:19.551Z,472.58
2023-10-24T01:48:46.079Z,449.63
2023-10-24T01:51:12.515Z,438.92
2023-10-24T01:53:38.966Z,451.10
2023-10-24T01:56:05.461Z,424.67
2023-10-24T01:58:31.996Z,373.13
2023-10-24T02:00:58.499Z,312.30
2023-10-24T02:03:25.039Z,234.82
2023-10-24T02:05:51.508Z,192.68
2023-10-24T02:08:17.896Z,168.25
2023-10-24T02:10:44.377Z,135.55
2023-10-24T02:13:10.928Z,138.65
2023-10-24T02:15:38.513Z,151.43
2023-10-24T02:18:05.243Z,160.45
2023-10-24T02:20:31.763Z,139.20
2023-10-24T02:22:58.192Z,141.02
2023-10-24T02:25:24.685Z,135.70
2023-10-24T02:27:51.170Z,145.93
2023-10-24T02:30:17.705Z,176.23
2023-10-24T02:32:44.199Z,162.15
2023-10-24T02:35:10.699Z,168.73
2023-10-24T02:37:37.608Z,157.07
2023-10-24T02:40:04.657Z,155.85
2023-10-24T02:42:31.036Z,155.25
2023-10-24T02:44:57.458Z,153.55
2023-10-24T02:47:23.934Z,129.52
2023-10-24T02:49:50.657Z,131.48
2023-10-24T02:52:17.140Z,125.18
2023-10-24T02:54:43.621Z,118.53
2023-10-24T02:57:10.576Z,133.25
2023-10-24T02:59:37.171Z,106.18
2023-10-24T03:02:03.790Z,111.45
2023-10-24T03:04:30.320Z,119.88
2023-10-24T03:06:56.757Z,126.70
2023-10-24T03:09:23.695Z,124.60
2023-10-24T03:11:50.205Z,106.80
2023-10-24T03:14:16.601Z,116.38
2023-10-24T03:16:43.215Z,145.70
2023-10-24T03:19:09.680Z,140.07
2023-10-24T03:21:36.317Z,137.57
2023-10-24T03:24:03.371Z,135.20
2023-10-24T03:26:29.846Z,120.78
2023-10-24T03:28:56.223Z,124.35
2023-10-24T03:31:22.841Z,114.38
2023-10-24T03:33:49.403Z,98.85
2023-10-24T03:36:15.924Z,95.45
2023-10-24T03:38:42.380Z,84.78
2023-10-24T03:41:09.093Z,97.53
2023-10-24T03:43:36.489Z,103.75
2023-10-24T03:46:07.368Z,105.88
2023-10-24T03:48:34.078Z,106.03
2023-10-24T03:51:01.655Z,96.93
2023-10-24T03:53:28.724Z,99.82
2023-10-24T03:55:56.791Z,100.68
2023-10-24T03:58:23.183Z,108.28
2023-10-24T04:00:49.664Z,110.18
2023-10-24T04:03:16.186Z,113.55
2023-10-24T04:05:42.647Z,97.93
2023-10-24T04:08:09.710Z,99.82
2023-10-24T04:10:36.232Z,92.43
2023-10-24T04:13:03.098Z,100.43
2023-10-24T04:15:29.463Z,92.65
2023-10-24T04:17:56.134Z,104.45
2023-10-24T04:20:22.901Z,107.75
2023-10-24T04:22:49.370Z,94.75
2023-10-24T04:25:16.608Z,105.78
2023-10-24T04:27:43.055Z,104.43
2023-10-24T04:30:11.100Z,95.80
2023-10-24T04:32:37.591Z,98.93
2023-10-24T04:35:06.707Z,100.07
2023-10-24T04:37:33.225Z,93.82
2023-10-24T04:39:59.682Z,93.10
2023-10-24T04:42:26.071Z,90.93
2023-10-24T04:44:52.451Z,97.93
2023-10-24T04:47:18.911Z,105.07
2023-10-24T04:49:45.313Z,98.40
2023-10-24T04:52:13.836Z,88.40
2023-10-24T04:54:40.601Z,86.22
2023-10-24T04:57:07.383Z,94.07
2023-10-24T04:59:35.179Z,82.10
2023-10-24T05:02:01.710Z,83.90
2023-10-24T05:04:28.417Z,89.25
2023-10-24T05:06:54.847Z,80.20
2023-10-24T05:09:21.334Z,77.90
2023-10-24T05:11:48.005Z,82.85
2023-10-24T05:14:16.824Z,89.28
2023-10-24T05:16:45.379Z,89.35
2023-10-24T05:19:11.810Z,76.28
2023-10-24T05:21:38.347Z,76.05
2023-10-24T05:24:05.082Z,72.40
2023-10-24T05:26:31.489Z,77.57
2023-10-24T05:28:58.075Z,85.97
2023-10-24T05:31:24.609Z,76.15
2023-10-24T05:33:51.267Z,70.63
2023-10-24T05:36:18.752Z,68.05
2023-10-24T05:38:45.289Z,71.28
2023-10-24T05:41:12.840Z,70.88
2023-10-24T05:43:40.395Z,55.15
2023-10-24T05:46:07.095Z,49.85
2023-10-24T05:48:34.329Z,51.55
2023-10-24T05:51:00.813Z,46.10
2023-10-24T05:53:27.205Z,45.53
2023-10-24T05:55:53.756Z,51.58
2023-10-24T05:58:20.470Z,52.15
2023-10-24T06:00:47.022Z,58.60
2023-10-24T06:03:15.812Z,55.55
2023-10-24T06:05:42.445Z,61.45
2023-10-24T06:08:08.856Z,53.38
2023-10-24T06:10:35.298Z,53.72
2023-10-24T06:13:03.430Z,52.30
2023-10-24T06:15:29.857Z,55.58
2023-10-24T06:17:56.534Z,52.95
2023-10-24T06:20:22.993Z,47.30
2023-10-24T06:22:49.437Z,59.17
2023-10-24T06:25:15.986Z,50.33
2023-10-24T06:27:42.722Z,47.85
2023-10-24T06:30:09.380Z,50.47
2023-10-24T06:32:37.196Z,45.63
2023-10-24T06:35:03.902Z,43.08
2023-10-24T06:37:30.344Z,38.97
2023-10-24T06:39:56.803Z,38.60
2023-10-24T06:42:25.626Z,33.15
2023-10-24T06:44:52.118Z,29.35
2023-10-24T06:47:18.504Z,34.67
2023-10-24T06:49:44.971Z,35.85
2023-10-24T06:52:11.450Z,30.35
2023-10-24T06:54:37.892Z,29.92
2023-10-24T06:57:04.433Z,29.83
2023-10-24T06:59:30.904Z,31.00
2023-10-24T07:01:57.362Z,31.92
2023-10-24T07:04:23.814Z,31.92
2023-10-24T07:06:50.292Z,31.23
2023-10-24T07:09:16.670Z,30.30
2023-10-24T07:11:43.353Z,30.42
2023-10-24T07:14:09.934Z,31.17
2023-10-24T07:16:39.473Z,30.98
2023-10-24T07:19:05.882Z,33.67
2023-10-24T07:21:32.323Z,37.08
2023-10-24T07:23:59.300Z,39.35
2023-10-24T07:26:25.751Z,37.63
2023-10-24T07:28:52.152Z,39.88
2023-10-24T07:31:19.386Z,38.97
2023-10-24T07:33:47.588Z,40.28
2023-10-24T07:36:14.035Z,35.40
2023-10-24T07:38:41.346Z,39.72
2023-10-24T07:41:07.986Z,37.40
2023-10-24T07:43:34.798Z,37.00
2023-10-24T07:46:01.249Z,38.00
2023-10-24T07:48:27.846Z,43.38
2023-10-24T07:50:55.184Z,41.42
2023-10-24T07:53:22.595Z,37.85
2023-10-24T07:55:49.569Z,40.78
2023-10-24T07:58:19.940Z,39.22
2023-10-24T08:00:50.083Z,34.88
2023-10-24T08:03:17.326Z,35.00
2023-10-24T08:05:45.253Z,36.05
2023-10-24T08:08:11.765Z,38.20
2023-10-24T08:10:38.217Z,37.45
2023-10-24T08:13:04.683Z,40.10
2023-10-24T08:15:31.137Z,37.08
2023-10-24T08:17:58.077Z,38.35
2023-10-24T08:20:24.550Z,36.60
2023-10-24T08:22:52.598Z,38.80
2023-10-24T08:25:19.114Z,37.67
2023-10-24T08:27:46.207Z,40.58
2023-10-24T08:30:13.101Z,38.60
2023-10-24T08:32:39.686Z,39.30
2023-10-24T08:35:06.507Z,37.55
2023-10-24T08:37:35.494Z,36.67
2023-10-24T08:40:02.710Z,39.47
2023-10-24T08:42:30.796Z,38.80
2023-10-24T08:44:59.858Z,39.85
2023-10-24T08:47:28.872Z,37.28
2023-10-24T08:49:56.702Z,38.10
2023-10-24T08:52:30.676Z,38.67
2023-10-24T08:55:02.296Z,36.35
2023-10-24T08:57:31.774Z,36.60
2023-10-24T09:00:00.991Z,37.72
2023-10-24T09:02:29.122Z,38.33
2023-10-24T09:04:55.660Z,37.95
2023-10-24T09:07:22.226Z,39.88
2023-10-24T09:09:48.770Z,37.63
2023-10-24T09:12:16.639Z,40.10
2023-10-24T09:14:53.704Z,38.42
2023-10-24T09:17:23.702Z,38.40
2023-10-24T09:19:50.759Z,41.13
2023-10-24T09:22:18.399Z,41.55
2023-10-24T09:24:49.662Z,39.35
2023-10-24T09:27:18.018Z,39.78
2023-10-24T09:29:44.758Z,40.08
2023-10-24T09:32:18.601Z,43.35
2023-10-24T09:34:49.684Z,41.65
2023-10-24T09:37:17.144Z,41.53
2023-10-24T09:39:53.551Z,40.60
2023-10-24T09:42:27.855Z,40.83
2023-10-24T09:44:59.464Z,39.70
2023-10-24T09:47:27.444Z,41.55
2023-10-24T09:49:55.411Z,40.22
2023-10-24T09:52:25.118Z,40.20
2023-10-24T09:54:53.063Z,37.42
2023-10-24T09:57:24.245Z,39.28
2023-10-24T09:59:58.670Z,41.00
2023-10-24T10:02:27.188Z,43.60
2023-10-24T10:04:54.336Z,45.33
2023-10-24T10:07:21.797Z,43.20
2023-10-24T10:09:52.679Z,43.80
2023-10-24T10:12:19.390Z,45.83
2023-10-24T10:15:15.789Z,51.22
2023-10-24T10:18:12.525Z,44.38
2023-10-24T10:20:50.524Z,43.55
2023-10-24T10:23:26.093Z,43.15
2023-10-24T10:25:56.421Z,47.00
2023-10-24T10:28:54.617Z,46.95
2023-10-24T10:32:38.615Z,45.60
2023-10-24T10:34:38.217Z,43.40
2023-10-24T10:37:05.656Z,46.35
2023-10-24T10:39:32.323Z,48.95
2023-10-24T10:41:58.918Z,50.58
2023-10-24T10:44:37.576Z,48.05
2023-10-24T10:47:07.618Z,45.05
2023-10-24T10:49:52.813Z,51.72
2023-10-24T10:52:31.593Z,47.38
2023-10-24T10:55:12.477Z,49.03
2023-10-24T10:58:00.525Z,46.67
2023-10-24T11:00:39.856Z,48.55
2023-10-24T11:03:14.206Z,56.60
2023-10-24T11:05:44.020Z,55.45
2023-10-24T11:08:18.940Z,63.10
2023-10-24T11:11:01.721Z,60.95
2023-10-24T11:13:43.037Z,66.55
2023-10-24T11:16:29.962Z,113.10
2023-10-24T11:19:00.227Z,89.63
2023-10-24T11:21:27.129Z,119.32
2023-10-24T11:23:54.864Z,155.75
2023-10-24T11:26:21.322Z,203.63
2023-10-24T11:28:47.809Z,277.80
2023-10-24T11:31:25.205Z,294.42
2023-10-24T11:33:52.069Z,347.13
2023-10-24T11:36:18.700Z,386.50
2023-10-24T11:38:46.223Z,450.67
2023-10-24T11:41:12.888Z,481.67
2023-10-24T11:43:39.528Z,509.10
2023-10-24T11:46:06.085Z,556.97
2023-10-24T11:48:32.539Z,580.40
2023-10-24T11:51:03.882Z,590.30
2023-10-24T11:53:30.674Z,608.78
2023-10-24T11:55:57.273Z,644.75
2023-10-24T11:58:24.758Z,652.97
2023-10-24T12:00:51.460Z,662.53
2023-10-24T12:03:18.219Z,656.53
2023-10-24T12:05:55.860Z,661.42
2023-10-24T12:08:25.922Z,660.15
2023-10-24T12:10:56.589Z,700.75
2023-10-24T12:13:24.695Z,649.80
2023-10-24T12:15:51.719Z,694.30
2023-10-24T12:18:18.514Z,713.35
2023-10-24T12:20:46.714Z,720.08
2023-10-24T12:23:13.206Z,710.03
2023-10-24T12:25:39.666Z,727.08
2023-10-24T12:28:06.349Z,732.28
2023-10-24T12:30:32.796Z,690.60
2023-10-24T12:32:59.352Z,699.60
2023-10-24T12:35:25.776Z,685.17
2023-10-24T12:37:52.482Z,697.40
2023-10-24T12:40:19.720Z,709.50
2023-10-24T12:42:46.306Z,712.22
2023-10-24T12:45:12.821Z,695.78
2023-10-24T12:47:39.379Z,707.65
2023-10-24T12:50:06.258Z,697.58
2023-10-24T12:52:32.722Z,717.58
2023-10-24T12:54:59.381Z,720.50
2023-10-24T12:57:25.911Z,711.65
2023-10-24T12:59:53.855Z,684.72
2023-10-24T13:02:20.390Z,671.33
2023-10-24T13:04:47.072Z,630.90
2023-10-24T13:07:16.154Z,629.75
2023-10-24T13:09:44.302Z,669.75
2023-10-24T13:12:11.495Z,704.88
2023-10-24T13:14:38.436Z,659.10
2023-10-24T13:17:15.517Z,659.35
2023-10-24T13:19:42.720Z,597.20
2023-10-24T13:22:09.445Z,514.40
2023-10-24T13:24:35.868Z,506.42
2023-10-24T13:27:02.361Z,530.28
2023-10-24T13:29:28.762Z,536.63
2023-10-24T13:31:56.883Z,536.05
2023-10-24T13:35:40.275Z,531.40
2023-10-24T13:37:10.176Z,435.63
2023-10-24T13:39:36.815Z,452.23
2023-10-24T13:42:05.338Z,456.65
2023-10-24T13:44:31.716Z,508.45
2023-10-24T13:46:58.336Z,479.08
2023-10-24T13:49:24.922Z,445.08
2023-10-24T13:51:51.313Z,338.08
2023-10-24T13:54:17.839Z,363.50
2023-10-24T13:56:44.422Z,370.02
2023-10-24T13:59:11.051Z,400.00
2023-10-24T14:01:37.795Z,397.45
2023-10-24T14:04:04.596Z,360.77
2023-10-24T14:06:31.100Z,375.52
2023-10-24T14:08:58.094Z,333.85
2023-10-24T14:11:25.572Z,270.77
2023-10-24T14:13:52.056Z,279.52
2023-10-24T14:16:18.552Z,287.42
2023-10-24T14:18:45.058Z,312.58
2023-10-24T14:21:11.469Z,241.75
2023-10-24T14:23:38.161Z,199.20
2023-10-24T14:26:04.896Z,201.70
2023-10-24T14:28:32.090Z,218.18
2023-10-24T14:30:58.707Z,249.35
2023-10-24T14:33:25.267Z,268.90
2023-10-24T14:35:51.776Z,259.58
2023-10-24T14:38:18.318Z,222.45
2023-10-24T14:40:45.883Z,153.57
2023-10-24T14:43:12.324Z,149.55
2023-10-24T14:45:39.249Z,139.35
2023-10-24T14:48:07.944Z,195.50
2023-10-24T14:50:34.543Z,252.70
2023-10-24T14:53:01.000Z,192.10
2023-10-24T14:55:27.575Z,192.40
2023-10-24T14:57:54.278Z,207.20
2023-10-24T15:00:23.230Z,196.27
2023-10-24T15:02:49.776Z,232.65
2023-10-24T15:05:16.373Z,263.02
2023-10-24T15:07:42.998Z,247.98
2023-10-24T15:10:10.114Z,271.23
2023-10-24T15:12:36.613Z,281.95
2023-10-24T15:15:03.124Z,262.35
2023-10-24T15:17:29.747Z,307.15
2023-10-24T15:19:56.524Z,290.05
2023-10-24T15:22:23.207Z,342.52
2023-10-24T15:24:50.621Z,288.77
2023-10-24T15:27:18.517Z,279.60
2023-10-24T15:29:45.021Z,243.75
2023-10-24T15:32:13.209Z,315.52
2023-10-24T15:34:40.037Z,321.50
2023-10-24T15:37:06.608Z,295.27
2023-10-24T15:39:33.155Z,266.67
2023-10-24T15:42:00.190Z,292.90
2023-10-24T15:44:26.623Z,219.48
2023-10-24T15:46:53.170Z,191.93
2023-10-24T15:49:19.631Z,206.20
2023-10-24T15:51:47.060Z,215.20
2023-10-24T15:54:13.507Z,290.23
2023-10-24T15:56:39.897Z,279.40
2023-10-24T15:59:06.506Z,207.75
2023-10-24T16:01:33.070Z,214.20
2023-10-24T16:03:59.795Z,186.95
2023-10-24T16:06:26.429Z,185.25
2023-10-24T16:08:52.993Z,191.15
2023-10-24T16:11:20.872Z,215.95
2023-10-24T16:13:49.233Z,228.02
2023-10-24T16:16:15.704Z,215.32
2023-10-24T16:18:42.324Z,191.82
2023-10-24T16:21:08.826Z,194.88
2023-10-24T16:23:35.541Z,167.93
2023-10-24T16:26:06.383Z,212.52
2023-10-24T16:28:33.796Z,163.07
2023-10-24T16:31:00.267Z,185.75
2023-10-24T16:33:30.314Z,180.88
2023-10-24T16:35:57.525Z,183.65
2023-10-24T16:38:23.981Z,197.25
2023-10-24T16:40:50.539Z,173.18
2023-10-24T16:43:17.669Z,196.85
2023-10-24T16:45:48.662Z,195.82
2023-10-24T16:48:15.460Z,147.98
2023-10-24T16:50:41.954Z,129.18
2023-10-24T16:53:09.981Z,120.05
2023-10-24T16:55:36.710Z,153.65
2023-10-24T16:58:03.331Z,143.02
2023-10-24T17:00:29.779Z,154.18
2023-10-24T17:02:56.425Z,135.93
2023-10-24T17:05:22.948Z,138.27
2023-10-24T17:07:49.439Z,136.20
2023-10-24T17:10:16.146Z,124.97
2023-10-24T17:12:42.782Z,123.80
2023-10-24T17:15:09.903Z,110.10
2023-10-24T17:17:36.382Z,105.82
2023-10-24T17:20:05.584Z,96.10
2023-10-24T17:22:32.925Z,93.28
2023-10-24T17:25:00.637Z,93.35
2023-10-24T17:27:28.710Z,77.47
2023-10-24T17:29:56.779Z,84.60
2023-10-24T17:32:26.313Z,89.57
2023-10-24T17:34:53.231Z,88.30
2023-10-24T17:37:20.142Z,88.38
2023-10-24T17:39:47.860Z,77.95
2023-10-24T17:42:14.414Z,89.03
2023-10-24T17:44:41.390Z,91.07
2023-10-24T17:50:33.855Z,81.40
2023-10-24T17:53:45.156Z,95.50
2023-10-24T18:08:14.897Z,89.45
2023-10-24T18:11:03.257Z,97.75
2023-10-24T18:13:29.692Z,122.00
2023-10-24T18:15:56.956Z,130.73
2023-10-24T18:18:23.512Z,144.98
2023-10-24T18:20:50.061Z,164.85
2023-10-24T18:23:17.623Z,158.90
2023-10-24T18:25:54.253Z,176.85
2023-10-24T18:28:21.877Z,215.75
2023-10-24T18:30:48.649Z,238.40
2023-10-24T18:33:15.170Z,279.63
2023-10-24T18:35:41.569Z,313.08
2023-10-24T18:38:08.027Z,311.13
2023-10-24T18:40:34.471Z,325.92
2023-10-24T18:43:00.868Z,328.15
2023-10-24T18:45:27.480Z,312.80
2023-10-24T18:47:54.067Z,316.80
2023-10-24T18:50:22.737Z,319.38
2023-10-24T18:52:52.204Z,298.23
2023-10-24T18:55:18.856Z,266.50
2023-10-24T18:57:45.330Z,279.50
2023-10-24T19:00:12.332Z,288.95
2023-10-24T19:02:38.764Z,299.35
2023-10-24T19:05:05.404Z,307.98
2023-10-24T19:07:31.920Z,308.13
2023-10-24T19:09:58.619Z,302.23
2023-10-24T19:12:25.442Z,312.48
2023-10-24T19:14:52.190Z,290.77
2023-10-24T19:17:18.822Z,259.17
2023-10-24T19:19:45.517Z,237.68
2023-10-24T19:22:14.557Z,192.88
2023-10-24T19:24:41.405Z,198.05
2023-10-24T19:27:08.655Z,183.30
2023-10-24T19:29:35.312Z,155.63
2023-10-24T19:32:02.426Z,137.60
2023-10-24T19:34:29.185Z,118.90
2023-10-24T19:36:56.960Z,122.07
2023-10-24T19:39:24.003Z,128.73
2023-10-24T19:41:50.921Z,123.82
2023-10-24T19:44:17.911Z,112.13
2023-10-24T19:46:47.233Z,102.47
2023-10-24T19:49:13.954Z,108.95
2023-10-24T19:51:41.032Z,104.80
2023-10-24T19:54:07.981Z,99.15
2023-10-24T19:56:35.396Z,87.47
2023-10-24T19:59:01.962Z,85.40
2023-10-24T20:01:29.752Z,84.38
2023-10-24T20:03:57.261Z,78.22
2023-10-24T20:06:35.035Z,73.18
2023-10-24T20:09:03.533Z,73.40
2023-10-24T20:12:33.484Z,67.68
2023-10-24T20:14:20.817Z,53.55
2023-10-24T20:16:50.101Z,60.47
2023-10-24T20:19:17.950Z,59.45
2023-10-24T20:21:44.713Z,58.47
2023-10-24T20:24:12.619Z,56.97
2023-10-24T20:26:41.283Z,52.42
2023-10-24T20:29:07.816Z,58.72
2023-10-24T20:31:34.356Z,66.43
2023-10-24T20:34:01.010Z,68.38
2023-10-24T20:36:27.506Z,50.80
2023-10-24T20:38:54.940Z,50.35
2023-10-24T20:41:21.336Z,51.88
2023-10-24T20:43:47.761Z,53.55
2023-10-24T20:46:14.171Z,53.47
2023-10-24T20:48:40.687Z,49.70
2023-10-24T20:51:07.095Z,57.47
2023-10-24T20:53:33.995Z,48.67
2023-10-24T20:56:00.426Z,48.40
2023-10-24T20:58:26.830Z,45.08
2023-10-24T21:00:53.429Z,45.40
2023-10-24T21:03:20.073Z,43.88
2023-10-24T21:05:46.703Z,44.42
2023-10-24T21:08:13.387Z,39.20
2023-10-24T21:10:40.207Z,39.17
2023-10-24T21:13:07.134Z,41.60
2023-10-24T21:15:33.650Z,41.13
2023-10-24T21:18:00.178Z,38.97
2023-10-24T21:20:26.632Z,39.13
2023-10-24T21:22:52.991Z,39.13
2023-10-24T21:25:20.859Z,36.55
2023-10-24T21:27:47.333Z,36.85
2023-10-24T21:30:13.814Z,35.50
2023-10-24T21:32:40.401Z,33.00
2023-10-24T21:35:07.104Z,36.58
2023-10-24T21:37:33.513Z,34.33
2023-10-24T21:39:59.900Z,34.25
2023-10-24T21:42:26.507Z,35.63
2023-10-24T21:44:52.938Z,35.88
2023-10-24T21:47:19.361Z,35.42
2023-10-24T21:49:45.766Z,34.17
2023-10-24T21:52:12.237Z,31.90
2023-10-24T21:54:38.747Z,32.30
2023-10-24T21:57:05.432Z,31.90
2023-10-24T21:59:31.846Z,34.65
2023-10-24T22:01:58.285Z,34.00
2023-10-24T22:04:25.035Z,34.80
2023-10-24T22:06:51.569Z,32.90
2023-10-24T22:09:17.974Z,33.03
2023-10-24T22:11:44.394Z,35.58
2023-10-24T22:14:10.821Z,33.35
2023-10-24T22:16:38.405Z,33.80
2023-10-24T22:19:04.965Z,31.50
2023-10-24T22:21:31.620Z,33.88
2023-10-24T22:23:58.113Z,32.70
2023-10-24T22:26:24.558Z,31.90
2023-10-24T22:28:50.968Z,32.42
2023-10-24T22:31:17.477Z,32.13
2023-10-24T22:33:44.009Z,31.35
2023-10-24T22:36:10.559Z,30.38
2023-10-24T22:38:36.952Z,30.98
2023-10-24T22:41:03.469Z,31.85
2023-10-24T22:43:30.699Z,35.00
2023-10-24T22:45:57.262Z,31.50
2023-10-24T22:48:23.687Z,31.30
2023-10-24T22:50:50.120Z,30.30
2023-10-24T22:53:16.570Z,30.90
2023-10-24T22:55:42.954Z,31.58
2023-10-24T22:58:09.410Z,33.05
2023-10-24T23:00:36.384Z,32.70
2023-10-24T23:03:02.976Z,29.80
2023-10-24T23:05:29.521Z,28.20
2023-10-24T23:07:55.920Z,28.35
2023-10-24T23:10:22.341Z,27.75
2023-10-24T23:12:48.904Z,29.17
2023-10-24T23:15:15.529Z,27.02
2023-10-24T23:17:42.081Z,25.85
2023-10-24T23:20:09.342Z,27.10
2023-10-24T23:22:35.736Z,28.77
2023-10-24T23:25:02.221Z,27.67
2023-10-24T23:27:28.747Z,25.75
2023-10-24T23:29:55.159Z,24.38
2023-10-24T23:32:21.528Z,26.55
2023-10-24T23:34:47.979Z,24.52
2023-10-24T23:37:14.475Z,25.98
2023-10-24T23:39:41.175Z,25.77
2023-10-24T23:42:07.783Z,25.63
2023-10-24T23:44:34.301Z,24.40
2023-10-24T23:47:00.676Z,22.38
2023-10-24T23:49:27.288Z,22.95
2023-10-24T23:51:53.755Z,21.40
2023-10-24T23:54:20.263Z,23.88
2023-10-24T23:56:46.640Z,22.55
2023-10-24T23:59:13.071Z,25.40
